Ping Pong Board
บอร์ด: คนไทยเก่งปิงปอง
บอร์ด: การแข่งขันทั่วไทย
บอร์ด: พูดคุยทั่วไป-สินค้ามือ 2
บอร์ด: สินค้ามือสอง On FB
บอร์ด: แปลงสินทรัพย์เป็นทุน
บอร์ด: ขายสินค้าใหม่ มือ 1
บอร์ด: รีวิวอุปกรณ์
บอร์ด : รีวิวอุปกรณ์ On FB
บอร์ด: เทคนิคการเล่นปิงปอง
บอร์ด: การเมืองเรื่องปิงปอง
บอร์ด: บริจาคอุปกรณ์เหลือใช้
บอร์ด: ปรึกษาอาการบาดเจ็บ
บอร์ด: ปิงปองทุกจังหวัด
บอร์ด: ชมรมคนเล่นยางเม็ด
บอร์ด: จับแบบไม้จีน ไม้ญี่ปุ่น
บอร์ด: สนทนาภาษาปิงปอง
บอร์ด: นัดกันไปเรียน ไปเล่น
บอร์ด: Chat Online
บอร์ด: เล่นเกมส์ปิงปอง
บอร์ด: เกมส์ออนไลน์
สำหรับสมาชิก
นามปากกา
รหัสผ่าน
ลืมรหัสผ่าน
สมัครสมาชิกใช้งาน
กระทู้โดนใจชาวปิงปอง
สถานที่รับสอนปิงปอง
บอร์ดซื้อขายสินค้ามือสอง และพูดคุยแลกเปลี่ยนความคิดเห็นกัน
ตั้งกระทู้-เฉพาะกีฬาปิงปอง
ค้นหาข้อมูล :
ค้นหาจาก :
@เรื่อง.........FromAnswer-ReaderLast Answer
สงสารเด็กๆที่เล่นปิงปอง สนาคมเต่าล้านปี2/8103/11/2550 19:29:46
ถอยโยนด้านโฟร์ ลองโยนข้างลูก เหน่ง3/7593/11/2550 19:25:54
อยากได้โสเตอร์รูปนักปิงปองหาซื้อได้ที่ไหนครับ เจฟ3/7643/11/2550 19:25:26
สายชิงแชมป์ประเทศไทย zaddd1/7993/11/2550 19:23:27
ต้องการแลกไม้ Gatien Carbon 3D ด่วนสุดสุด4/8783/11/2550 18:50:07
ลองสมัคร You Tube ดูครับ Pimple Lover3/24863/11/2550 15:33:51
โปรแกรมการแข่งขันปิงปองชิงถ้วยพระราชทานประจำปี 2550 luckycookie4/8903/11/2550 10:56:51
ตารางแข่งชิงแช้มประเทศไทย ดูได้ที่ Web ไหนครับ CAT3/8753/11/2550 10:52:32
สุโขทัยมีที่เล่นปิงปองไหมค่ะมีโค๊ชไหม อร2/8673/11/2550 10:44:31
ในบอร์ดแห่งนี้มีใครเป็นนักกีฬาสโมสรบ้างครับ 11111111111111111111111114/10192/11/2550 20:18:54
พอดีจะใช้ครับ ด.ช.1/6652/11/2550 20:17:27
อยากซ้อมแบบมีระบบ wang1/7162/11/2550 20:16:31
ตารางการแข่งขันชิงแชมป์ประเทศไทย เมื่อไหร่จะออก เด็กเชียงใหม่26/14492/11/2550 8:51:46
ยางรุ่นของyasakaที่ใช้ในด้านบุกครับ wang2/7851/11/2550 16:31:59
หาซื้อไม้ BTY KREANGA CARBON ไม่เกิน 3000.- HiddenDragn0/6491/11/2550 15:32:11
แพ้ลูกสูงไซต์ แก้อย่างไรดี nut8/9381/11/2550 11:21:00
ใครไปคัดเขต4บ้างคับ แจ๊คptt0/59231/10/2550 21:13:43
หาซื้อไม้มือสอง BEE8/96531/10/2550 17:47:21
ประชาสัมพันธ์การแข่งขันแม่น้ำแควคัพครั้งที่ 2 อ.สาธิต1/74731/10/2550 16:22:01
อยากจะซื้อไม้ แกลเกอรี่ มือสอง ราคาถูกๆ อยู่ที่เท่าไรครับ Ninwy1/73531/10/2550 15:38:41
อยากดูคลิปปิงปองเด็ดๆ tank3/100031/10/2550 14:07:34
ใครมีโต๊ะปิงปองมือสองขายบ้าง โต๊ะเก่า1/69931/10/2550 11:24:11
ถึง คุณเหน่งครับ หำหำ2/70931/10/2550 8:49:03
ข้อศอก ศอก1/81231/10/2550 7:53:27
เรื่อง world junior ชอบตี๋ๆ3/74530/10/2550 23:45:29
ไม้SARDIUSจะติดยางอะรัยดีคับ เด็กแพร่12/137730/10/2550 23:40:53
เทคโนโลยี่ที่สามารถนำมาใช้ในการช่วยจัดการแข่งขันปิงปองได้ ปกรณ์ ทีมงาน CHALLENGE22/142630/10/2550 16:56:57
อยากรู้จังคับ Wang Liqin ใช้ไม้และยางอะไรคับ(ปัจจุบัน) Wang Liqinน้อย1/77330/10/2550 14:58:48
อยากเห็นไม้ HURRICANE KING ของจริง 55534/322430/10/2550 12:38:17
ใครได้เข้าอบรมผู้ฝึกสอนกีฬาปิงปองที่ กกท มาบ้างครับ มีเรื่องสอบถามหน่อย Pimple Lover2/87130/10/2550 10:50:33
ถึงคุน อัพ 2 it16/188329/10/2550 21:52:09
ไดโนเสาร์เล่นปิงปอง กร1/98229/10/2550 20:16:02
ถึงคุณเหน่งครับ สิริเมธ8/82529/10/2550 12:12:50
การคัดเลือกเยาวชนทีมชาติ ปี2551 เยาวชน6/119629/10/2550 11:57:13
หาซื้อไม้แรงๆมือสอง งบน้อย14/145828/10/2550 20:46:45
มือเก็บเม็ดช่วยแนะนำวิธีเก็บยางเม็ดยาวด้วยครับ กร3/82028/10/2550 18:00:43
ช่วยรีวิวไม้หน่อย จั่นเจา4/81328/10/2550 13:40:16
ชมรมปิงปองสงขลา ชอบทีมสงขลา21/152828/10/2550 13:08:05
ชาวปิงปองสุราษร์หายกันไปไหนหมด Owen0/74228/10/2550 1:55:52
เมื่อการแบนกาวที่มีสารระเหยพร้อมๆกับการแบนยางเม็ดยาว Frictionless มือบุกหรือมือรับจะเสียเปรียบมากกว่ากัน Pimple Lover20/341327/10/2550 23:02:53
ช่วยเเนะนำไม้ของBut เเละยาง(ไม่เอายางจีน) ช่วยด้วยครับ2/105827/10/2550 16:11:59
ตัวไหนดีสุดครับกาว ^ _ ^2/102627/10/2550 10:32:02
729 Fx super soft VS 729 Fx Lightennig mix7/126527/10/2550 10:25:11
อีก 2 แต้มจะชนะให้ตีลูกที่คู่แข่งคาดไม่ถึง เหน่ง7/87127/10/2550 10:19:20
ต้องการซ่อมเครื่องยิง จากลูก 38 เป็น 40มม. ป.5/91927/10/2550 9:26:14
นี่คืออะไรครับ เจฟ5/81426/10/2550 22:28:17
คะแนน Ranking เท่าไรถึงได้เลื่อนรุ่นคับ HoD_wOi7/82326/10/2550 21:53:41
ขาย Stiga Carbo7.6 ลดราคาลง ตั้ม4/103626/10/2550 18:02:01
Gergely กับ Stiga Carbo 7.6 ตัวไหนแรงกว่ากันครับ Gergely Never Die2/88126/10/2550 14:15:21
ต้องการไม้ Donic มือสอง ตู่3/81426/10/2550 12:57:34
คุยกัน เกี่ยวกับปิงปอง ตลอก 24 ช.ม. ยังว่างครับ อ่อน6/79726/10/2550 11:31:42
หาคนตี่ปิงปอง เจม4/76426/10/2550 10:45:27
ซ้อมกี่ชั่วโมง 216/112425/10/2550 22:11:28
DAWEI B และ B-1 เม็ดสั้น McM2/76925/10/2550 17:55:42
มีใครสนใจไม้ SWORD RG-UA บ้างไหมครับ onipikaju1/84025/10/2550 13:59:46
คุณคิดว่าใครตีปิงปองน่าดูที่สุดครับ ไข่เย็น10/111225/10/2550 13:32:28
ช่วยเปรียบเทียบให้ทีนะครับ สิทธิ์0/68725/10/2550 11:56:12
หาซื้อกาวสปีดและลูกปิงปองครับครับ ภูมิ0/67925/10/2550 9:57:00
ต้องการซื้อ SARDIUS aaa15/107425/10/2550 7:43:07
*** ต้องการไม่Galaxy 2024 หรื่อรุ่นอื่น + ยางด้านดำครับ *** P2/83125/10/2550 1:57:59
ขายไม้BF-Kong...ติดsriver fx2หน้า 2000 มีของแถม XxX17/116725/10/2550 0:46:56
สำรวจความคิดเห็นเกี่ยวกับ ALL THAILAND 5 ส่วนที่ 3 ทีมงาน CHALLENGE3/86924/10/2550 23:40:09
ถึงคุณไม้จีนยางเม็ด(เรื่องรูปถ่ายของเด็กในงานแข่ง) ผู้ปกครอง22/115924/10/2550 23:39:55
ยางอารายหว่าเสียงดังและแรงที่สุด ใครรู้บอกทีงับ กรคุง21/150024/10/2550 23:39:16
ยางจีนตัวไหนเเรงเท่าBryceมั่งครับ ...8/103624/10/2550 23:36:02
ถึงคุน เหน่ง it5/71924/10/2550 23:34:42
หาคนสอนปิงปผอง senkoh3/82824/10/2550 23:32:32
ทาแล็คเก้อด้ามไม้ 216/88924/10/2550 23:31:12
รายชื่อผู้ได้รับรางวัลจากการร่วมสนุกตอบคำถามประจำเดือน กย.2550 ใน www.pimplelover.pantown.com Pimple Lover1/69124/10/2550 23:29:53
ขายยาง palio hinden dragon หมีล5/85824/10/2550 23:29:34
โปรแกรมการแข่ง all thailand พ่อเด็กที่รักปิงปอง47/187924/10/2550 23:29:08
ถามเรื่องไม้ ว่าไม้นี้ควรติดยางอะไรดีครับ ผู้น้อย3/76324/10/2550 23:28:49
ยางเม็ดสั้นที่เด้งแรงที่สุด นักตบ4/185424/10/2550 23:25:48
F1-F2 WS_4/82924/10/2550 23:24:01
คนที่ไม่ผิด คือคนที่ไม่เคยทำอะไร .....7/91324/10/2550 23:23:52
ใครมีคลิปพี่โว้ตีตอนhot hot บ้างครับ HoD_wOi11/161524/10/2550 23:22:17
ไม้ตัวไหนของbutterflyเเรงที่สุดครับอยากรู้ ขอบคุณ3/84324/10/2550 23:21:18
มีข่าวมาบอก ปิงปองตั้งฮั่วเส็งใกล้เจ๊งแล้ว อิ๊กคิวซัง62/397824/10/2550 23:21:17
ผู้รู้ช่วยแนะนำด้วยครับ ขอร้อง...ช่วยทีครับ9/84724/10/2550 23:20:02
ขายไม้สองไม้ ตั้ม4/77824/10/2550 23:18:20
เรียนเชิญท่าน pimple lover เด็กเล่นเม็ด4/88724/10/2550 23:17:31
เรื่อง : เก็บกาวนานจะพังไหม ? ชอร์น อาเชอร์5/120724/10/2550 23:16:18
ชิงแชมป์ประเทศไทย กับภูมิภาค กระจายอำนาจ7/104624/10/2550 23:15:29
top สวนอย่างไรให้ลงโต๊ะ เด็กหัด top2/74824/10/2550 23:15:19
729 Fx super soft VS 729 Fx Lightennig mix1/69124/10/2550 23:13:46
มีข้อสังเกตตรงไหนบ้างครับว่าไม้ปิงปองหมดอายุ..หรือว่ามีประมาณกี่ปีถึงเสือมสภาพครับ นักปิงปองบ้านนอก3/85924/10/2550 23:13:29
[b] เเบ็คเเฮดเม็ดยาว [/b] เล่นอย่างไรบ้างครับ เด็กเล่นเม็ด3/89324/10/2550 23:13:03
ขายไม้พร้อมยาง ใหม่ๆ สองแผ่น รวมค่าส่ง 2000 บาทครับ ไข่เย็น10/125124/10/2550 23:12:50
อยากเห็นH - 1 - 9ของจริงมีใครใช้บ้าง ผีปิงปอง1/67024/10/2550 23:10:46
ชิงถ้วยพระราชทานปีนี้ ปิดรับสมัครวันที่ 21 ตุลาคม 2550 นี้นะ สมัครด่วนจ้า ฝ่ายประสานงาน8/83124/10/2550 23:10:42
ภาพแข่งออลไทยแลนด์5 TwiddlingEffect18/97024/10/2550 23:09:13
เพื่อนๆแถวงามวงวานมีบ้างมั๊ยคับแระเค้าตีปิงปองกันที่ไหนหรอ บีบี้คุง5/82824/10/2550 23:07:34
ขายไม้andro kinetic cf carbon off+ love tabletennis11/100024/10/2550 23:06:21
ใครมีผลกรมพละบ้าง ..2/76024/10/2550 23:04:55
ผลการแข่งขัน PEA Tabletennis Open ครั้งที่ 3 bonus20/145624/10/2550 23:03:46
มีที่เล่นปิงปองที่เชี่ยงใหม่ไหมครับ CobBa3/72124/10/2550 23:03:28
เรื่องรองเท้า กำลังจะหาซื้ออ่ะค่ะ DD4/116724/10/2550 23:02:54
ยางสีดำและยางสีแดงมีความหมุนเท่ากันไหม จ.5/87324/10/2550 23:01:38
ถึงคุน อัพ it67/209324/10/2550 23:00:42
ขอพลังชาวปิงปองรวมใจกันต้าน ต้น ....... คนเลวของสังคม อิ๊กคิวซัง111/345924/10/2550 22:57:41
สงสัยครับว่านักปิงปองเก่งๆ ทำไมทยอยหายตัวกันไป ไข่เย็น16/132824/10/2550 22:56:36
อยากทราบเกี่ยวกับการดูลูก P+T4/80024/10/2550 22:56:22
Tibharเป็นสินค้าของประเทศอะไรและผลิตที่ประเทศไหนครับ ผีปิงปอง7/201524/10/2550 22:55:58
สิ่งดีงามของนักปิงปองไทยหายไปใหนเอ่ย...................... ปิงปองโบราณ(หากหัวใจยังรักปิงปอง)5/81124/10/2550 22:55:03
อยู่พระราม6เรียนปิงปองที่ไหนดี love tabletennis3/101324/10/2550 22:54:45
ใครบุกเม็ดยาวเป็นเชิญทางนี้ เด็กเล่นเม็ด0/68124/10/2550 22:41:35
ขอยางเก่าๆๆฟรีๆๆ สภาพไหนก็ได้ คนจนไม่มีเงินซื้อยาง17/133424/10/2550 21:57:26
คุณใช้ไม้และยางอะไรกันอะครับ YoNg58/388817/10/2550 15:48:16
ขายยาง Andro สภาพใหม่ หัดขาย6/95817/10/2550 14:35:23
อยากทราบว่ายาง729lightening kaomo boll3/79217/10/2550 13:44:37
ถ้าคิดจะขายของในเว็ป อย่าทำตัวลึกลับเหมือนซื้อขายของโจร คบเด็กสร้างบ้าน3/104817/10/2550 13:26:27
คุณแหน่งช่วยหน่อยครับ เด็กมือใหม่3/74117/10/2550 12:16:56
เสาร์อาทิตย์ที่ผ่านมา ใครคัดติดทีมชาติชุดซีเกมส์ที่โคราชบ้าง vUv4/96917/10/2550 9:31:19
ตีหนีจุดแข็ง เหน่ง7/89417/10/2550 9:22:42
ยางเม็ดรุ่นไหนบ้างที่ห้ามเเข่ง เด็กเล่นเม็ด1/79517/10/2550 6:27:15
ขายไม้ 2 ไม้ครับ ฟลุ๊คครับ2/83717/10/2550 0:46:13
ใครรู้เรื่องกาวปิงปองช่วยมาตอบหน่อยครับ มือใหม่2/85416/10/2550 23:30:21
ยาง729 super sofe ตีดีอย่างไร kaomo boll1/79016/10/2550 23:10:53
ขายยางสี่เหลี่ยม + ไม้สภาพ 90 ครับ ดังนี้ ขายหน่อยนะครับ11/97416/10/2550 22:00:52
อยากได้F3 ผีปิงปอง0/63116/10/2550 21:34:00
ถ้าจ้างโค้ชทีมชาติมาสอนลูกที่บ้าน ปกติชมละเท่าไรครับ พอเพียง25/186416/10/2550 16:56:28
ใครมีเบอร์ติดต่อ แม็ค เสกพงษ์ บ้างครับ รุ่นพี่11/129316/10/2550 16:11:38
ถามเรื่องรองเท้า mizuno ที่จีน ตั้ม3/101016/10/2550 15:35:48
อยากทราบการแข่งขันPEA Table Tennis Open ครั้งที่3 คนรักปิงปอง0/59116/10/2550 8:48:18
สอบถามเรื่องรักกีฬากับอุปกรณ์ครับ เจฟฟี่คุง2/102515/10/2550 23:15:56
ขอเชิญร่วมแข่งขันรายการเล็ก ไม่มีค่าสมัครแต่มีถ้วยและรางวัล tee-noy2/78815/10/2550 22:20:34
อยากได้เสื้อเเบบนี้ซื้อได้ที่ไหน ชอบเสื้อ2/85615/10/2550 22:08:21
ในบอร์ดนี้มีใครไปแข่งชิงแชมป์ประเทศไทยบ้างครับ เด็กเชียงใหม่1/62515/10/2550 22:06:31
hurricane 2 กับ 3 ควรซื้ออันไหนดี ass18/135615/10/2550 21:44:29
ลอกยางบ่อยๆมีผลอะไรกับไม้ไหมครับ 213/74715/10/2550 21:41:53
รายการชิงแชมป์ภาคใต้ ครั้งที่ 2 ปิงปอง..กรุงเทพ1/82515/10/2550 20:54:17
คนแปดริ้วจะตีปิงปองได้ที่ไหนครับ... thanu1/77715/10/2550 19:23:29
ใครใช้แล็กเก้อทาบ้าง 211/79815/10/2550 16:48:09
อยากถามยางตัวไหนไม่ต้องทากาวบ้างครับ มือใหม่4/104015/10/2550 16:41:28
หาซื้อรองเท้าครับ ขาดแคลนรองเท้า แต่งบน้อย0/76715/10/2550 12:52:14
ลอกกาวออกจากฟองนําครับ มือใหม่1/86815/10/2550 12:33:20
ช่วยที่ครับ xiom2/77915/10/2550 12:24:23
ขาย ไม้Black devil FL มีรูปครับ อ้วน 5/139815/10/2550 6:38:41
อยากทราบราคาส่งกาว3Kครับ 660/70715/10/2550 0:57:02
อยากได้โปรแกรมการไฟฟ้าพรุ่งนี้ด่วน รอหวัง0/74414/10/2550 20:43:04
ถึง คุณเหน่งครับ sense3/72314/10/2550 18:36:59
แฟนตาสติกโฟร์ สี่พลังกายสิทธิ์ เหน่ง10/146614/10/2550 18:27:53
เรื่องการแพ้ทาง และการวางลูก ปีเตอร์2/92214/10/2550 17:35:39
ระเบียบการแข่งขัน ชิงถ้วยพระราชทาน 2550 Mr.K4/94314/10/2550 17:14:47
ใครกันที่ท๊อปแรงที่สุดในประเทศไทย รักนะ22/130414/10/2550 15:59:00
ใครรู้เรื่องกาวปิงปองช่วยมาตอบหน่อยครับ มือใหม่0/67214/10/2550 14:24:31
ไม้มีเสี้ยน 212/80114/10/2550 12:40:34
ลอกยางออกจากไม้ 211/74814/10/2550 7:37:00
มาชวนกันตีปิงปอง ปีศาจแดง1/86013/10/2550 22:31:21
ขอถามคุณพี่เหน่งและคุณพี่อัพและทุกคน ต้องเด็ก เชียงใหม่6/87913/10/2550 22:07:47
ยาง729 super sofe ดีอย่างไร kaomo boll0/68313/10/2550 22:04:00
มีการอบรมผู้ฝึกสอนของ ITTF ในประเทศไทยด้วย แจ้งข่าว0/73813/10/2550 18:46:37
ถึง คุณเหน่งครับ sense2/71513/10/2550 12:20:06
หาเพื่อนตีปิงปอง ที่ระยองครับผม โป้ง0/73013/10/2550 11:36:27
ชมรมคนรักต้น... ...35/144313/10/2550 10:07:15
ไม้ของ xushaofa รุ่น2008-2 กับของ galaxy รุ่น2023carbon ตัวไหนเเรงกว่ากัน เล่นได้สักระยะ3/90813/10/2550 9:52:21
ถึงคุณเหน่งครับ sense1/68213/10/2550 9:08:02
ติดกาวแล้วลอก 211/80013/10/2550 8:59:31
ลบกระทู้ตั้ฮั้วเสงเถอะครับ รำคลาน40/122612/10/2550 22:53:55
Stiga Carobo 7.6 Stiga carbo7.62/75112/10/2550 21:15:51
ท๊อปยังไงให้แรง...ค้าบบบ บดิทรเดชา 210/100012/10/2550 18:07:30
ช่วยเเนะนํายางหน่อยครับ บ้า power3/94612/10/2550 18:05:33
ขอถามเรื่อยางเม็ด Fient Long II หน่อยนะครับ และขอคำแนะนำยางเม็ดหน่อยนะครับ uuu1/70112/10/2550 14:00:09
หาที่ปิงปองแถวบางนา คนแก่ไม่อยากแก่2/74812/10/2550 13:51:49
รับไม้ COFFERLAIT หรือ KEYSHOT LIGHT หรือ ISHLION -FirsT-0/79211/10/2550 17:06:33
ผลแข่ง all thailand (การแข่งขันระดับประเทศ) หาดูได้ที่ไหนครับ คนอยากทราบผล1/75611/10/2550 16:49:07
ใครได้แชมป์ All Thailand ครับ คนบ้านไกลอยากรู้14/129911/10/2550 10:07:52
ขอคำแนะนำไม้TIBHARหน่อยนะครับ จะซื้อไม้ใหม่ครับ zaza3/108011/10/2550 9:39:54
วงการปิงปองใจดำมาก คน ต.จ.ว. หัวใจปิงปองแต่อาภัพ3/175311/10/2550 9:29:16
อยากอ่านบทสัมภาษณ์ผู้เล่นระดับโลกคนไหนโหวตมานะครับ ผมจะแปลมาให้อ่าน asturias25/105911/10/2550 1:29:37
อยากทราบผลการแข่งขัน All Thailand 5th ทุกรุ่น อยากรู้1/72510/10/2550 23:52:46
คิดยังไงกับ sword และ reactor sat30/183010/10/2550 23:03:36
ถึง คุณเหน่งครับ sense11/79410/10/2550 21:10:07
ต้องการซื้อโต๊ะปิงปองมือสอง ให้เด็กๆเล่น แดง1/128210/10/2550 19:38:56
คำชี้แจงของฝ่ายจัด ออลไทยแลนด์ 5 เอ็ม2/86810/10/2550 17:55:18
มีใครขาย Hermoso light บ้างคับ 124972/68910/10/2550 16:15:21
พี่น้อย สุรสิทธิ์ คร๊าบ ทราบแล้วเปลี่ยนครับ ป๊อก2/82910/10/2550 16:11:14
คุณpimplelover ยางเม็ดกึ่งมีตัวใดที่น่าสนใจบ้าง ขอทั้งยี่ห้อDr.และยี่ห้ออื่นนะครับ เพิ่งหัดเล่นครับ safejohn3/81110/10/2550 11:11:45
ใครใช้ไม้ W.SCHLAGER บ้างครับ.... อยากรู้จริงๆ2/80210/10/2550 10:30:40
เมื่อไหร่น้า ยางDR. dt Hall จะลด50% เหมือนยางเรียบบ้างน้า ป๊อก0/63410/10/2550 10:13:57
มีไม้ joola kool ต้องการแลกกับไม้ของ stiga ครับ asturias3/79610/10/2550 1:52:06
แนะนำเวปปิงปองเปิดใหม่ครับ ปกรณ์ ชื่นเชาว์ไว0/225710/10/2550 1:11:54
มาดูเว็บไซต์ของสมาคมเทเบิลเทนนิสประเทศต่างๆกันดีกว่า Pimple Lover8/89110/10/2550 0:15:32
ควรใช้กาวแบบไหนทา 210/6559/10/2550 22:22:05
พี่โจ้ ภาคภูมิ สุดฮอต ในการแข่งเทเบิลเทนนิสประเภททีม กีฬาแห่งชาติครั้งที่ 36 ณ จังหวัดนครศรีธรรมราช Pimple Lover61/53029/10/2550 20:34:19
ต้องขออภัยมานะที่นี้ ภุชงค์ สงวนสิน23/21759/10/2550 18:57:11
ไม้ของ palio รุ่น t92carbon กับไม้ของ donic รุ่น opticon rs รุ่นไหนดีกว่ากันชอบตบ งง8/11659/10/2550 15:28:32
ยางรุ่นไหน ฟองน้ำ หนาๆ นิ่มๆ บ้างครับ เคนนี่2/8039/10/2550 13:31:26
เพราะอะไร....ผู้ใหญ่....ไม่สำคัญ (ถ่ายทอดสด) อยากพูด อยากระบาย ท้าชน5/8219/10/2550 13:25:24
webmasterครับ กระทู้สาระหายไปไหน ไม่อยากบอกชื่อ16/9359/10/2550 11:18:58
ผลการแข่งขันออลไทยแลนด์เซอร์กิต 5 ล่าสุด โหน่งเท่ง2/10129/10/2550 10:48:21
อะไรคือฟองนนํา 30 องศา แล้ว powerspong คือไร 213/9859/10/2550 1:37:24
ห้ามโค้ชนั่งเวลาแข่ง นักกีฬา12/10738/10/2550 21:39:13
ขอทราบความชัดเจนของกฏห้ามเด็กอายุ 12 ปีเล่นยางเม็ดยาว KKK1/7818/10/2550 20:46:27
ชมรมคนรัก คุณโอ๋ เกี๊ยะ1/6808/10/2550 20:14:54
ขอขายไม้+ยางดังนี้ครับ(ของเพื่อนครับ) ติดต่อเองครับ2/7808/10/2550 20:01:23
ผลการแข่งขันออลไทยแลนด์ 5 บางคู่ สายด่วน1/8138/10/2550 17:50:31
แนะนำยาง ที่ตัดได้ สุดยอด ท็อปดี ตีง่าย xiom (yanus df) num herricane king14/23498/10/2550 17:02:34
ขอแสดงความยินดีกับนักปิงปองไทย นักปิงปอง0/7928/10/2550 14:25:12
ตีเบสิกแล้วได้อะไร 2114/9978/10/2550 13:02:35
Page :  1  2  3  4  5  6  7  8  9  10  11  12  13  14  15  16  17  18  19  20  21  22  23  24  25  26  27  28  29  30  31  32  33  34  35  36  37  38  39  40  41  42  43  44  45  46  47  48  49  50  51  52  53  54  55  56  57  58  59  60  61  62  63  64  65  66  67  68  69  70  71  72  73  74  75  76  77  78  79  80  81  82  83  84  85  86  87  88  89  90  91  92  93  94  95  96  97  98  99  100  101  102  103  104  105  106  107  108  109  110  111  112  113  114  115  116  117  118  119  120  121  122  123  124  125  126  127  128  129  130  131  132  133  134  135  136  137  138  139  140  141  142  143  144  145  146  147  148  149  150  151  152  153  154  155  156  157  158  159  160  161  162  163  164  165  166  167  168  169  170  171  172  173  174  175  176  177  178  179  180  181  182  183  184  185  186  187  188  189  190  191  192  193  194  195  196  197  198  199  200  201 
[ First ] [<< back ] [ next>> ] [ Last ]  
VIP SPONSOR

 

ห้ามอย่านำสินค้าหนีภาษี - สินค้าหิ้วเข้ามาเอง - สินค้าปลอม มาจำหน่ายในเวปนี้
 
© 2020 All Rights Reserved
Powered by
ThaiWebWizard.com